KASL/ASL METAR and TAF weather

Enter ICAO airport designator
Station Type Date Time Source
KASL METAR 2019/02/20 06:55 UTC NOAA

KASL 200655Z AUTO 35007KT 2 1/2SM OVC005 02/02 A2993 RMK AO1 T00230015


Station Type Date Time Source
KASL Decoded METAR 2019/02/20 06:55 UTC NOAA

Station name not available
Feb 20, 2019 - 01:55 AM EST / 2019.02.20 0655 UTC
Wind: from the N (350 degrees) at 8 MPH (7 KT):0
Visibility: 2 1/2 mile(s):0
Sky conditions: overcast
Temperature: 36.1 F (2.3 C)
Dew Point: 34.7 F (1.5 C)
Relative Humidity: 94%
Pressure (altimeter): 29.93 in. Hg (1013 hPa)
ob: KASL 200655Z AUTO 35007KT 2 1/2SM OVC005 02/02 A2993 RMK AO1 T00230015
cycle: 7

Station Type Date Time Source
KASL TAF UTC NOAA

Error!


Example: see airport list